createdAt,value
2018-04-12T00:01:17.075Z,42.70
2018-04-12T00:03:44.492Z,42.50
2018-04-12T00:08:41.538Z,42.50
2018-04-12T00:11:10.384Z,42.70
2018-04-12T00:13:37.731Z,43.00
2018-04-12T00:16:05.858Z,43.00
2018-04-12T00:21:01.525Z,42.40
2018-04-12T00:25:57.170Z,42.70
2018-04-12T00:28:24.535Z,43.30
2018-04-12T00:30:52.635Z,43.40
2018-04-12T00:35:48.254Z,42.90
2018-04-12T00:38:16.372Z,42.90
2018-04-12T00:40:44.427Z,43.10
2018-04-12T00:45:40.238Z,43.80
2018-04-12T00:48:07.602Z,43.60
2018-04-12T00:50:35.684Z,43.50
2018-04-12T00:53:03.774Z,43.20
2018-04-12T00:55:31.098Z,43.40
2018-04-12T00:57:58.446Z,43.70
2018-04-12T01:00:25.812Z,43.60
2018-04-12T01:05:21.442Z,43.40
2018-04-12T01:07:48.877Z,43.60
2018-04-12T01:10:17.088Z,43.60
2018-04-12T01:12:44.527Z,43.50
2018-04-12T01:15:12.776Z,43.10
2018-04-12T01:20:08.439Z,44.30
2018-04-12T01:22:35.780Z,43.30
2018-04-12T01:25:03.938Z,43.40
2018-04-12T01:27:32.042Z,43.80
2018-04-12T01:32:27.649Z,44.50
2018-04-12T01:34:55.010Z,43.70
2018-04-12T01:39:51.523Z,44.10
2018-04-12T01:42:19.621Z,43.60
2018-04-12T01:44:47.790Z,44.00
2018-04-12T01:47:15.330Z,44.50
2018-04-12T01:49:43.419Z,44.60
2018-04-12T01:52:11.550Z,44.70
2018-04-12T01:57:07.951Z,45.00
2018-04-12T01:59:35.303Z,45.20
2018-04-12T02:02:03.372Z,44.60
2018-04-12T02:04:30.779Z,45.00
2018-04-12T02:06:58.880Z,44.50
2018-04-12T02:09:26.258Z,44.90
2018-04-12T02:11:54.346Z,44.90
2018-04-12T02:14:21.677Z,45.20
2018-04-12T02:16:49.762Z,45.10
2018-04-12T02:19:17.110Z,44.90
2018-04-12T02:21:44.551Z,45.70
2018-04-12T02:26:40.171Z,46.30
2018-04-12T02:29:08.247Z,45.60
2018-04-12T02:31:35.586Z,45.40
2018-04-12T02:34:03.651Z,45.30
2018-04-12T02:38:59.987Z,46.00
2018-04-12T02:41:28.075Z,45.90
2018-04-12T02:43:55.410Z,45.80
2018-04-12T02:46:23.955Z,45.30
2018-04-12T02:48:51.275Z,44.80
2018-04-12T02:51:18.708Z,45.70
2018-04-12T02:56:15.284Z,46.40
2018-04-12T03:01:11.822Z,45.90
2018-04-12T03:03:41.390Z,45.30
2018-04-12T03:08:38.034Z,45.60
2018-04-12T03:11:05.399Z,45.90
2018-04-12T03:13:32.762Z,46.70
2018-04-12T03:16:00.834Z,45.60
2018-04-12T03:20:56.469Z,46.00
2018-04-12T03:23:24.546Z,45.90
2018-04-12T03:28:20.374Z,45.90
2018-04-12T03:30:47.759Z,46.80
2018-04-12T03:33:16.002Z,46.80
2018-04-12T03:38:11.600Z,46.90
2018-04-12T03:40:38.966Z,46.80
2018-04-12T03:43:06.401Z,46.30
2018-04-12T03:45:33.843Z,47.10
2018-04-12T03:48:01.205Z,46.60
2018-04-12T03:50:28.665Z,47.10
2018-04-12T03:55:24.991Z,47.50
2018-04-12T03:57:52.382Z,47.10
2018-04-12T04:00:19.721Z,46.40
2018-04-12T04:02:47.835Z,47.20
2018-04-12T04:05:16.123Z,47.40
2018-04-12T04:10:13.554Z,47.10
2018-04-12T04:12:41.682Z,47.30
2018-04-12T04:17:55.862Z,47.10
2018-04-12T04:20:36.098Z,47.10
2018-04-12T04:23:03.432Z,47.60
2018-04-12T04:27:59.847Z,47.60
2018-04-12T04:30:27.186Z,47.40
2018-04-12T04:32:54.566Z,47.00
2018-04-12T04:35:21.931Z,47.50
2018-04-12T04:37:49.272Z,48.10
2018-04-12T04:40:16.642Z,47.40
2018-04-12T04:42:44.778Z,47.40
2018-04-12T04:45:12.239Z,47.60
2018-04-12T04:47:40.319Z,46.60
2018-04-12T04:50:07.676Z,47.00
2018-04-12T04:52:35.035Z,47.10
2018-04-12T04:55:02.492Z,47.20
2018-04-12T04:57:29.870Z,47.10
2018-04-12T05:02:25.582Z,47.20
2018-04-12T05:04:53.747Z,47.70
2018-04-12T05:07:21.291Z,46.30
2018-04-12T05:17:14.663Z,47.20
2018-04-12T05:19:42.735Z,47.90
2018-04-12T05:22:10.070Z,48.10
2018-04-12T05:24:38.220Z,47.10
2018-04-12T05:32:02.391Z,47.00
2018-04-12T05:36:58.061Z,47.60
2018-04-12T05:39:26.638Z,47.10
2018-04-12T05:41:53.984Z,47.30
2018-04-12T05:44:21.330Z,46.90
2018-04-12T05:51:46.062Z,45.60
2018-04-12T05:56:41.673Z,45.30
2018-04-12T05:59:09.065Z,45.10
2018-04-12T06:04:04.690Z,44.90
2018-04-12T06:06:32.067Z,44.50
2018-04-12T06:09:05.444Z,44.60
2018-04-12T06:11:33.394Z,45.00
2018-04-12T06:14:00.763Z,44.50
2018-04-12T06:16:28.745Z,43.70
2018-04-12T06:26:21.309Z,42.30
2018-04-12T06:28:48.638Z,42.20
2018-04-12T06:31:16.922Z,41.90
2018-04-12T06:33:44.402Z,42.10
2018-04-12T06:38:40.031Z,40.20
2018-04-12T06:48:33.113Z,39.80
2018-04-12T06:51:00.618Z,39.50
2018-04-12T06:55:56.215Z,38.90
2018-04-12T06:58:23.611Z,38.50
2018-04-12T07:00:51.716Z,38.80
2018-04-12T07:03:19.091Z,38.90
2018-04-12T07:05:47.493Z,38.00
2018-04-12T07:08:15.393Z,37.90
2018-04-12T07:13:12.196Z,36.50
2018-04-12T07:15:39.773Z,37.10
2018-04-12T07:20:36.406Z,36.70
2018-04-12T07:23:03.802Z,36.00
2018-04-12T07:27:59.475Z,35.40
2018-04-12T07:30:26.862Z,34.30
2018-04-12T07:32:54.219Z,35.20
2018-04-12T07:35:21.610Z,35.80
2018-04-12T07:40:17.429Z,34.20
2018-04-12T07:42:44.783Z,34.10
2018-04-12T07:45:13.056Z,35.00
2018-04-12T07:50:08.838Z,36.40
2018-04-12T07:52:36.157Z,36.40
2018-04-12T07:55:04.269Z,36.40
2018-04-12T07:59:59.930Z,36.00
2018-04-12T08:07:23.857Z,32.80
2018-04-12T08:09:52.918Z,32.70
2018-04-12T08:14:48.559Z,33.00
2018-04-12T08:17:16.210Z,34.10
2018-04-12T08:19:43.593Z,33.90
2018-04-12T08:22:12.004Z,34.40
2018-04-12T08:24:40.062Z,34.40
2018-04-12T08:27:08.746Z,34.70
2018-04-12T08:29:36.925Z,35.20
2018-04-12T08:32:04.314Z,35.70
2018-04-12T08:34:32.395Z,35.80
2018-04-12T08:39:29.222Z,35.80
2018-04-12T08:41:56.611Z,35.90
2018-04-12T08:44:23.979Z,36.10
2018-04-12T08:46:51.355Z,36.20
2018-04-12T08:49:19.456Z,35.20
2018-04-12T08:51:46.829Z,35.10
2018-04-12T08:54:14.214Z,34.70
2018-04-12T08:56:41.617Z,35.30
2018-04-12T08:59:09.787Z,35.10
2018-04-12T09:01:37.386Z,35.20
2018-04-12T09:04:06.973Z,34.80
2018-04-12T09:09:09.370Z,34.80
2018-04-12T09:11:39.199Z,34.50
2018-04-12T09:14:07.402Z,34.50
2018-04-12T09:16:35.528Z,34.00
2018-04-12T09:19:03.788Z,33.60
2018-04-12T09:21:31.593Z,33.30
2018-04-12T09:24:00.996Z,32.40
2018-04-12T09:26:30.208Z,32.20
2018-04-12T09:28:58.415Z,31.00
2018-04-12T09:31:26.586Z,29.80
2018-04-12T09:33:57.532Z,29.40
2018-04-12T09:36:28.732Z,28.30
2018-04-12T09:39:00.430Z,27.40
2018-04-12T09:41:33.374Z,28.00
2018-04-12T09:44:03.730Z,28.40
2018-04-12T09:46:31.246Z,28.80
2018-04-12T09:48:59.659Z,29.30
2018-04-12T09:51:29.760Z,28.80
2018-04-12T09:53:59.863Z,28.80
2018-04-12T09:56:28.330Z,28.90
2018-04-12T09:59:00.240Z,28.80
2018-04-12T10:01:31.144Z,28.90
2018-04-12T10:04:01.410Z,29.10
2018-04-12T10:06:36.820Z,28.80
2018-04-12T10:09:14.742Z,28.20
2018-04-12T10:14:19.950Z,27.70
2018-04-12T10:16:47.370Z,27.10
2018-04-12T10:19:18.373Z,26.10
2018-04-12T10:21:47.570Z,25.60
2018-04-12T10:24:15.016Z,24.90
2018-04-12T10:26:44.107Z,25.40
2018-04-12T10:29:17.130Z,25.70
2018-04-12T10:31:46.255Z,24.50
2018-04-12T10:34:16.110Z,23.60
2018-04-12T10:36:47.170Z,22.90
2018-04-12T10:39:19.403Z,22.50
2018-04-12T10:41:49.458Z,22.00
2018-04-12T10:44:17.956Z,22.00
2018-04-12T10:46:46.292Z,21.50
2018-04-12T10:49:20.404Z,21.00
2018-04-12T10:51:51.717Z,21.10
2018-04-12T10:54:19.394Z,20.60
2018-04-12T10:56:46.894Z,19.50
2018-04-12T10:59:16.236Z,20.40
2018-04-12T11:01:43.624Z,19.30
2018-04-12T11:04:11.010Z,19.50
2018-04-12T11:09:06.830Z,19.20
2018-04-12T11:11:36.768Z,18.60
2018-04-12T11:14:04.240Z,17.50
2018-04-12T11:16:31.631Z,18.00
2018-04-12T11:19:06.739Z,17.70
2018-04-12T11:21:34.098Z,18.00
2018-04-12T11:24:03.110Z,18.10
2018-04-12T11:26:32.938Z,18.00
2018-04-12T11:29:02.217Z,17.60
2018-04-12T11:31:32.552Z,18.00
2018-04-12T11:34:00.941Z,17.80
2018-04-12T11:36:31.116Z,18.10
2018-04-12T11:39:04.214Z,18.40
2018-04-12T11:41:35.356Z,19.00
2018-04-12T11:44:04.689Z,19.70
2018-04-12T11:46:33.294Z,19.10
2018-04-12T11:49:02.126Z,19.50
2018-04-12T11:51:30.446Z,19.20
2018-04-12T11:54:01.675Z,19.10
2018-04-12T11:56:31.666Z,19.70
2018-04-12T11:59:01.856Z,21.00
2018-04-12T12:01:29.259Z,21.10
2018-04-12T12:04:03.376Z,21.60
2018-04-12T12:06:31.563Z,21.50
2018-04-12T12:09:00.774Z,21.80
2018-04-12T12:11:33.581Z,22.00
2018-04-12T12:14:04.570Z,21.70
2018-04-12T12:16:37.426Z,21.70
2018-04-12T12:19:06.698Z,22.10
2018-04-12T12:21:37.299Z,22.60
2018-04-12T12:24:05.650Z,22.60
2018-04-12T12:26:34.696Z,22.70
2018-04-12T12:29:08.444Z,23.00
2018-04-12T12:31:39.115Z,23.20
2018-04-12T12:34:06.694Z,23.40
2018-04-12T12:36:36.799Z,23.70
2018-04-12T12:39:06.805Z,24.10
2018-04-12T12:41:37.127Z,24.40
2018-04-12T12:44:04.476Z,24.40
2018-04-12T12:46:33.868Z,23.80
2018-04-12T12:49:02.176Z,23.60
2018-04-12T12:51:34.035Z,23.60
2018-04-12T12:54:04.946Z,23.50
2018-04-12T12:56:39.623Z,23.60
2018-04-12T12:59:11.257Z,23.80
2018-04-12T13:01:41.105Z,24.00
2018-04-12T13:04:09.353Z,23.90
2018-04-12T13:06:39.314Z,23.50
2018-04-12T13:09:07.687Z,23.90
2018-04-12T13:11:43.362Z,24.60
2018-04-12T13:14:12.552Z,23.60
2018-04-12T13:16:45.992Z,23.40
2018-04-12T13:19:22.387Z,24.20
2018-04-12T13:21:55.268Z,23.60
2018-04-12T13:24:27.186Z,23.40
2018-04-12T13:27:00.379Z,23.80
2018-04-12T13:29:30.447Z,24.00
2018-04-12T13:31:59.618Z,24.20
2018-04-12T13:34:31.778Z,24.70
2018-04-12T13:37:01.783Z,24.20
2018-04-12T13:39:32.869Z,24.00
2018-04-12T13:42:07.319Z,24.00
2018-04-12T13:44:36.482Z,24.30
2018-04-12T13:47:03.840Z,24.60
2018-04-12T13:49:33.275Z,25.30
2018-04-12T13:52:03.166Z,25.00
2018-04-12T13:54:35.995Z,24.30
2018-04-12T13:57:05.923Z,24.40
2018-04-12T13:59:33.417Z,24.90
2018-04-12T14:02:02.764Z,24.70
2018-04-12T14:04:33.566Z,24.50
2018-04-12T14:07:03.720Z,24.80
2018-04-12T14:09:32.749Z,23.90
2018-04-12T14:12:02.021Z,22.90
2018-04-12T14:14:32.112Z,22.50
2018-04-12T14:17:05.524Z,22.10
2018-04-12T14:19:35.369Z,22.70
2018-04-12T14:22:03.546Z,22.90
2018-04-12T14:24:36.718Z,22.60
2018-04-12T14:27:04.111Z,22.70
2018-04-12T14:29:36.347Z,22.90
2018-04-12T14:32:06.674Z,23.30
2018-04-12T14:34:35.593Z,21.50
2018-04-12T14:37:06.867Z,21.70
2018-04-12T14:39:39.812Z,21.20
2018-04-12T14:42:10.115Z,20.40
2018-04-12T14:44:40.341Z,20.50
2018-04-12T14:47:12.954Z,20.50
2018-04-12T14:49:41.286Z,20.30
2018-04-12T14:52:10.598Z,19.50
2018-04-12T14:54:43.270Z,19.50
2018-04-12T14:57:14.448Z,18.50
2018-04-12T14:59:41.978Z,18.00
2018-04-12T15:02:11.358Z,18.40
2018-04-12T15:04:41.686Z,19.30
2018-04-12T15:07:12.618Z,18.90
2018-04-12T15:09:43.901Z,18.80
2018-04-12T15:12:14.886Z,18.70
2018-04-12T15:14:44.108Z,18.10
2018-04-12T15:17:18.792Z,18.00
2018-04-12T15:19:48.843Z,18.60
2018-04-12T15:22:17.869Z,18.60
2018-04-12T15:24:47.041Z,17.70
2018-04-12T15:27:17.098Z,18.10
2018-04-12T15:29:50.880Z,18.70
2018-04-12T15:32:21.822Z,18.00
2018-04-12T15:34:53.637Z,17.30
2018-04-12T15:37:21.049Z,17.10
2018-04-12T15:39:50.865Z,17.50
2018-04-12T15:42:30.344Z,17.40
2018-04-12T15:45:02.487Z,17.20
2018-04-12T15:47:31.687Z,17.60
2018-04-12T15:50:05.408Z,17.10
2018-04-12T15:52:37.726Z,17.40
2018-04-12T15:55:06.794Z,17.60
2018-04-12T15:57:34.189Z,17.10
2018-04-12T16:00:04.504Z,17.80
2018-04-12T16:02:35.481Z,18.00
2018-04-12T16:05:05.514Z,18.20
2018-04-12T16:07:32.870Z,18.30
2018-04-12T16:10:00.949Z,18.10
2018-04-12T16:12:28.211Z,18.30
2018-04-12T16:17:23.843Z,18.80
2018-04-12T16:19:51.090Z,19.10
2018-04-12T16:24:46.774Z,18.70
2018-04-12T16:32:10.598Z,19.50
2018-04-12T16:34:37.913Z,19.40
2018-04-12T16:37:05.358Z,19.70
2018-04-12T16:39:33.384Z,19.30
2018-04-12T16:42:00.750Z,19.50
2018-04-12T16:44:28.805Z,19.10
2018-04-12T16:49:24.264Z,19.90
2018-04-12T16:51:51.551Z,19.50
2018-04-12T16:54:18.824Z,20.30
2018-04-12T16:56:46.219Z,20.10
2018-04-12T16:59:14.587Z,19.90
2018-04-12T17:01:42.652Z,19.70
2018-04-12T17:04:09.902Z,19.70
2018-04-12T17:06:37.287Z,19.90
2018-04-12T17:09:05.422Z,19.80
2018-04-12T17:16:30.275Z,19.30
2018-04-12T17:18:58.298Z,19.20
2018-04-12T17:23:54.221Z,18.40
2018-04-12T17:26:22.467Z,18.30
2018-04-12T17:41:13.206Z,18.10
2018-04-12T17:46:09.559Z,18.20
2018-04-12T17:48:37.587Z,18.50
2018-04-12T17:51:05.668Z,18.10
2018-04-12T17:53:33.730Z,18.30
2018-04-12T17:56:01.215Z,18.40
2018-04-12T18:00:57.352Z,18.30
2018-04-12T18:03:25.183Z,18.20
2018-04-12T18:08:23.010Z,18.40
2018-04-12T18:10:55.435Z,18.40
2018-04-12T18:16:00.687Z,19.20
2018-04-12T18:18:28.930Z,19.90
2018-04-12T18:20:56.443Z,20.50
2018-04-12T18:23:23.751Z,20.30
2018-04-12T18:25:53.786Z,19.90
2018-04-12T18:28:21.038Z,20.10
2018-04-12T18:30:48.974Z,23.50
2018-04-12T18:33:17.228Z,24.40
2018-04-12T18:35:44.542Z,25.40
2018-04-12T18:38:13.220Z,27.40
2018-04-12T18:40:42.724Z,29.10
2018-04-12T18:43:11.067Z,29.70
2018-04-12T18:45:39.197Z,29.50
2018-04-12T18:48:07.898Z,29.80
2018-04-12T18:50:35.314Z,30.00
2018-04-12T18:53:02.826Z,30.70
2018-04-12T18:55:30.878Z,31.50
2018-04-12T18:57:58.319Z,31.40
2018-04-12T19:00:25.623Z,32.00
2018-04-12T19:02:53.683Z,32.40
2018-04-12T19:05:21.738Z,33.60
2018-04-12T19:07:49.127Z,34.10
2018-04-12T19:10:16.425Z,34.30
2018-04-12T19:12:46.827Z,34.50
2018-04-12T19:15:14.139Z,35.20
2018-04-12T19:17:42.403Z,35.70
2018-04-12T19:20:09.846Z,36.20
2018-04-12T19:22:37.152Z,36.10
2018-04-12T19:25:05.283Z,36.00
2018-04-12T19:27:32.596Z,36.10
2018-04-12T19:30:00.005Z,36.20
2018-04-12T19:32:27.387Z,36.50
2018-04-12T19:34:54.708Z,36.80
2018-04-12T19:37:22.335Z,37.10
2018-04-12T19:39:49.616Z,37.00
2018-04-12T19:42:17.153Z,37.10
2018-04-12T19:44:44.453Z,37.10
2018-04-12T19:47:11.988Z,37.10
2018-04-12T19:49:39.254Z,37.30
2018-04-12T19:52:07.595Z,37.50
2018-04-12T19:54:35.093Z,37.50
2018-04-12T19:57:02.722Z,38.30
2018-04-12T19:59:30.024Z,37.80
2018-04-12T20:01:57.507Z,38.10
2018-04-12T20:04:24.847Z,38.10
2018-04-12T20:06:52.346Z,38.20
2018-04-12T20:09:19.668Z,38.30
2018-04-12T20:11:47.911Z,38.60
2018-04-12T20:14:15.927Z,38.60
2018-04-12T20:16:43.244Z,38.90
2018-04-12T20:19:11.420Z,39.10
2018-04-12T20:21:38.815Z,39.10
2018-04-12T20:24:06.135Z,39.20
2018-04-12T20:26:33.411Z,39.20
2018-04-12T20:29:00.853Z,39.20
2018-04-12T20:31:28.255Z,39.30
2018-04-12T20:33:55.516Z,39.30
2018-04-12T20:36:22.979Z,39.50
2018-04-12T20:38:51.226Z,39.50
2018-04-12T20:41:19.554Z,39.50
2018-04-12T20:43:46.974Z,39.80
2018-04-12T20:48:39.584Z,39.70
2018-04-12T20:51:06.858Z,40.00
2018-04-12T20:53:34.118Z,40.10
2018-04-12T20:56:01.426Z,40.00
2018-04-12T20:58:28.712Z,40.70
2018-04-12T21:00:56.876Z,40.20
2018-04-12T21:03:24.203Z,40.30
2018-04-12T21:05:51.641Z,40.40
2018-04-12T21:08:19.758Z,40.60
2018-04-12T21:10:47.773Z,40.60
2018-04-12T21:13:15.154Z,40.80
2018-04-12T21:15:42.436Z,41.00
2018-04-12T21:18:09.851Z,40.80
2018-04-12T21:20:38.095Z,41.00
2018-04-12T21:23:05.655Z,40.90
2018-04-12T21:25:32.937Z,40.80
2018-04-12T21:28:04.734Z,41.00
2018-04-12T21:30:31.999Z,41.10
2018-04-12T21:32:59.376Z,41.30
2018-04-12T21:35:26.743Z,41.40
2018-04-12T21:37:54.017Z,41.50
2018-04-12T21:40:21.282Z,41.50
2018-04-12T21:42:48.623Z,41.70
2018-04-12T21:45:16.794Z,41.80
2018-04-12T21:47:44.813Z,41.70
2018-04-12T21:50:12.128Z,41.50
2018-04-12T21:52:39.393Z,41.50
2018-04-12T21:55:06.662Z,41.50
2018-04-12T21:57:33.956Z,41.20
2018-04-12T22:00:01.277Z,41.30
2018-04-12T22:02:28.694Z,41.50
2018-04-12T22:04:55.971Z,41.80
2018-04-12T22:07:23.242Z,41.80
2018-04-12T22:09:50.540Z,42.00
2018-04-12T22:12:17.853Z,42.10
2018-04-12T22:14:46.207Z,41.90
2018-04-12T22:17:13.494Z,41.40
2018-04-12T22:19:40.943Z,41.40
2018-04-12T22:22:08.190Z,41.80
2018-04-12T22:24:35.557Z,42.00
2018-04-12T22:27:02.975Z,41.80
2018-04-12T22:29:32.097Z,41.50
2018-04-12T22:31:59.480Z,41.90
2018-04-12T22:34:27.470Z,42.40
2018-04-12T22:36:54.938Z,42.10
2018-04-12T22:39:22.236Z,42.90
2018-04-12T22:41:49.498Z,42.10
2018-04-12T22:44:16.791Z,42.50
2018-04-12T22:46:44.074Z,42.60
2018-04-12T22:49:11.396Z,42.50
2018-04-12T22:51:39.373Z,42.90
2018-04-12T22:54:06.762Z,42.10
2018-04-12T22:56:34.285Z,42.40
2018-04-12T22:59:02.372Z,42.70
2018-04-12T23:01:29.769Z,42.40
2018-04-12T23:03:57.186Z,42.20
2018-04-12T23:06:24.890Z,42.90
2018-04-12T23:08:53.238Z,42.50
2018-04-12T23:11:20.623Z,42.00
2018-04-12T23:13:47.986Z,42.10
2018-04-12T23:16:15.644Z,41.90
2018-04-12T23:18:42.998Z,42.20
2018-04-12T23:21:10.626Z,42.00
2018-04-12T23:23:37.968Z,43.20
2018-04-12T23:26:05.335Z,42.60
2018-04-12T23:28:32.668Z,43.20
2018-04-12T23:31:00.036Z,44.00
2018-04-12T23:33:27.450Z,43.20
2018-04-12T23:35:54.829Z,43.60
2018-04-12T23:38:22.192Z,42.90
2018-04-12T23:40:51.188Z,42.70
2018-04-12T23:43:18.587Z,42.60
2018-04-12T23:45:45.938Z,43.60
2018-04-12T23:48:13.392Z,43.70
2018-04-12T23:50:41.425Z,42.90
2018-04-12T23:53:08.890Z,43.30
2018-04-12T23:55:37.592Z,43.60
2018-04-12T23:58:04.964Z,43.10
